Bookmark and Share
Track history (hours):
 

Jury M

Last reported at 2014-Apr-18 16:05 UTC. Time now 2014-Apr-18 20:49 UTC.
Position N 31°25' E 121°30'.

Length 190 m; draft 9.9 m.

Type: Cargo ship. MMSI: 355723000.

NotesDate/timePositionNaut miles runAvg speedWind from/ knotsBaromVisibWave heightAir tempDewpointWater temp
2014-Apr-18 16:05N 31°25' E 121°30'3210.9
2014-Apr-18 13:10N 31°46' E 121°02'811.7
2014-Apr-18 12:31N 31°50' E 120°54'1211.9
2014-Apr-18 11:31N 32°01' E 120°47'2 1.6
2014-Apr-18 10:23N 31°60' E 120°45'0 0.0
2014-Apr-18 09:20N 31°60' E 120°45'0 0.0
2014-Apr-18 08:32N 31°60' E 120°45'0 0.1
2014-Apr-18 06:29N 31°60' E 120°45'0 0.0
2014-Apr-18 05:23N 31°60' E 120°45'0 0.0
2014-Apr-18 04:29N 31°60' E 120°45'0 0.0
2014-Apr-18 03:32N 31°60' E 120°45'0 0.0
2014-Apr-18 02:17N 31°60' E 120°45'0 0.0
2014-Apr-18 01:32N 31°60' E 120°45'0 0.0
2014-Apr-18 00:29N 31°60' E 120°45'0 0.1
2014-Apr-17 23:29N 31°60' E 120°45'0 0.1
2014-Apr-17 22:29N 31°60' E 120°45'0 0.1
2014-Apr-17 21:32N 31°60' E 120°45'0 0.1
2014-Apr-17 20:32N 31°60' E 120°45'0 0.0
2014-Apr-17 19:29N 31°60' E 120°45'0 0.2
2014-Apr-17 18:23N 31°60' E 120°45'0 0.1
2014-Apr-17 17:29N 31°60' E 120°45'0 0.0
2014-Apr-17 16:32N 31°60' E 120°45'0 0.0
2014-Apr-17 15:17N 31°60' E 120°45'0 0.0
2014-Apr-17 14:32N 31°60' E 120°45'0 0.0
2014-Apr-17 13:32N 31°60' E 120°45'0 0.0
2014-Apr-17 12:29N 31°60' E 120°45'0 0.1
2014-Apr-17 11:32N 31°60' E 120°45'0 0.0
2014-Apr-17 10:32N 31°60' E 120°45'0 0.1
2014-Apr-17 07:14N 31°60' E 120°45'0 0.3
2014-Apr-17 06:29N 31°60' E 120°45'0 0.1
2014-Apr-17 05:32N 31°60' E 120°45'0 0.0
2014-Apr-17 04:26N 31°60' E 120°45'0 0.0
2014-Apr-17 03:29N 31°60' E 120°45'0 0.0
2014-Apr-17 02:32N 31°60' E 120°45'0 0.0
2014-Apr-17 01:32N 31°60' E 120°45'0 0.0
2014-Apr-17 00:32N 31°60' E 120°45'0 0.0
2014-Apr-16 23:17N 31°60' E 120°45'0 0.1
2014-Apr-16 22:29N 31°60' E 120°45'0 0.2
2014-Apr-16 21:23N 31°60' E 120°45'0 0.0
2014-Apr-16 20:29N 31°60' E 120°45'0 0.0
2014-Apr-16 19:26N 31°60' E 120°45'0 0.0
2014-Apr-16 18:29N 31°60' E 120°45'0 0.2
2014-Apr-16 17:29N 31°60' E 120°45'0 0.1
2014-Apr-16 16:29N 31°60' E 120°45'0 0.0
2014-Apr-16 15:29N 31°60' E 120°45'0 0.0
2014-Apr-16 14:17N 31°60' E 120°45'0 0.0
2014-Apr-16 12:29N 31°60' E 120°45'0 0.0
2014-Apr-16 11:29N 31°60' E 120°45'0 0.1
2014-Apr-16 10:29N 31°60' E 120°45'0 0.1
2014-Apr-16 09:29N 31°60' E 120°45'0 0.1
2014-Apr-16 08:17N 31°60' E 120°45'0 0.1
2014-Apr-16 07:29N 31°60' E 120°45'0 0.0
2014-Apr-16 06:29N 31°60' E 120°45'0 0.3
2014-Apr-16 05:32N 31°60' E 120°45'0 0.0
2014-Apr-16 04:17N 31°60' E 120°45'0 0.1
2014-Apr-16 03:32N 31°60' E 120°45'0 0.0
2014-Apr-16 02:29N 31°60' E 120°45'0 0.0
2014-Apr-16 01:14N 31°60' E 120°45'0 0.0
2014-Apr-16 00:29N 31°60' E 120°45'0 0.0
2014-Apr-15 23:32N 31°60' E 120°45'0 0.1
2014-Apr-15 22:11N 31°60' E 120°45'0 0.2
2014-Apr-15 21:32N 31°60' E 120°45'0 0.1
2014-Apr-15 20:29N 31°60' E 120°45'0 0.0
2014-Apr-15 19:26N 31°60' E 120°45'0 0.0
2014-Apr-15 18:23N 31°60' E 120°45'0 0.1
2014-Apr-15 17:32N 31°60' E 120°45'0 0.3
2014-Apr-15 16:29N 31°60' E 120°45'0 0.0
2014-Apr-15 15:29N 31°60' E 120°45'0 0.0
2014-Apr-15 14:32N 31°60' E 120°45'0 0.0
2014-Apr-15 12:29N 31°60' E 120°45'0 0.0
2014-Apr-15 10:29N 31°60' E 120°45'0 0.4
2014-Apr-15 09:34N 32°00' E 120°45'8 7.7
2014-Apr-15 08:34N 31°55' E 120°53'1010.5
2014-Apr-15 07:34N 31°47' E 120°60'1111.4
2014-Apr-15 06:34N 31°41' E 121°11'1312.7
2014-Apr-15 05:32N 31°32' E 121°22'18 9.2
2014-Apr-15 03:33N 31°21' E 121°39'10 9.9
2014-Apr-15 02:33N 31°17' E 121°50'  
2014-Apr-12 09:27N 35°38' E 120°59'9 9.9
2014-Apr-12 08:33N 35°45' E 120°52'19 9.7
2014-Apr-12 06:33N 35°58' E 120°34'1111.1
2014-Apr-12 05:33N 36°01' E 120°21'5 4.4
2014-Apr-12 04:25N 36°06' E 120°19'0 0.2
2014-Apr-12 03:31N 36°06' E 120°19'0 0.0
2014-Apr-12 02:25N 36°06' E 120°19'0 0.0
2014-Apr-12 01:31N 36°06' E 120°19'0 0.0
2014-Apr-12 00:31N 36°06' E 120°19'0 0.0
2014-Apr-11 23:31N 36°06' E 120°19'0 0.0
2014-Apr-11 22:19N 36°06' E 120°19'0 0.0
2014-Apr-11 21:31N 36°06' E 120°19'0 0.0
2014-Apr-11 20:19N 36°06' E 120°19'0 0.0
2014-Apr-11 19:19N 36°06' E 120°19'0 0.0
2014-Apr-11 18:31N 36°06' E 120°19'0 0.0
2014-Apr-11 17:25N 36°06' E 120°19'0 0.0
2014-Apr-11 16:31N 36°06' E 120°19'0 0.0
2014-Apr-11 13:19N 36°06' E 120°19'0 0.0
2014-Apr-11 05:25N 36°06' E 120°19'0 0.0
2014-Apr-10 22:31N 36°06' E 120°19'0 0.0
2014-Apr-10 21:31N 36°06' E 120°19'0 0.0
2014-Apr-10 15:07N 36°06' E 120°19'0 0.0
2014-Apr-10 10:31N 36°06' E 120°19'0 0.0
2014-Apr-10 09:31N 36°06' E 120°19'1 0.6
2014-Apr-10 08:27N 36°05' E 120°19'4 4.3
2014-Apr-10 07:33N 36°02' E 120°20'1010.0
2014-Apr-10 06:33N 35°59' E 120°32'20 0.5
2014-Apr-08 16:31N 35°50' E 120°54'  

Dump ship's entire track history

sailing weather and tide predictions

Jury M — 3EOG2 — position and weather